Time;durP1;ratioP1;P1;durP2;ratioP2;P2;SDS_P1;SDS_P2;PMS_P1;PMS_P2;Temp;Humidity;BMP_temperature;BMP_pressure;BME280_temperature;BME280_humidity;BME280_pressure;Samples;Min_cycle;Max_cycle;Signal;HPM_P1;HPM_P2
2024/03/11 00:01:12;;;;;;;2.20;1.15;;;10.00;99.90;;;;;;5033691;28;20018;-82
2024/03/11 00:03:38;;;;;;;1.08;0.90;;;10.00;99.90;;;;;;5014818;28;20029;-81
2024/03/11 00:06:04;;;;;;;1.85;1.00;;;10.00;99.90;;;;;;5031232;28;20075;-81
2024/03/11 00:08:31;;;;;;;1.13;1.00;;;10.00;99.90;;;;;;5012967;28;20025;-82
2024/03/11 00:11:00;;;;;;;1.20;1.08;;;10.00;99.90;;;;;;5010762;28;21841;-81
2024/03/11 00:13:32;;;;;;;4.63;1.13;;;10.00;99.90;;;;;;5018185;28;20025;-81
2024/03/11 00:16:01;;;;;;;1.02;0.93;;;10.00;99.90;;;;;;5031498;28;20102;-81
2024/03/11 00:18:28;;;;;;;2.07;1.20;;;10.00;99.90;;;;;;5011533;28;20020;-82
2024/03/11 00:20:55;;;;;;;2.05;1.00;;;10.00;99.90;;;;;;5028124;28;20085;-81
2024/03/11 00:23:21;;;;;;;2.90;1.35;;;10.00;99.90;;;;;;5017724;28;20025;-81
2024/03/11 00:25:47;;;;;;;4.03;1.40;;;10.00;99.90;;;;;;5011575;28;20087;-82
2024/03/11 00:28:12;;;;;;;1.05;0.95;;;10.00;99.90;;;;;;5034134;28;20504;-80
2024/03/11 00:30:38;;;;;;;1.45;1.20;;;9.90;99.90;;;;;;5013027;28;20037;-82
2024/03/11 00:33:04;;;;;;;2.47;1.27;;;9.90;99.90;;;;;;5012494;28;20475;-82
2024/03/11 00:35:30;;;;;;;3.83;1.40;;;9.90;99.90;;;;;;5011847;28;20113;-81
2024/03/11 00:37:55;;;;;;;2.00;1.50;;;9.90;99.90;;;;;;5035413;28;20025;-81
2024/03/11 00:40:23;;;;;;;2.95;1.40;;;10.00;99.90;;;;;;5015663;28;20072;-81
2024/03/11 00:42:49;;;;;;;3.70;1.60;;;9.90;99.90;;;;;;5015126;28;20028;-81
2024/03/11 00:45:15;;;;;;;1.33;1.23;;;9.90;99.90;;;;;;5030972;28;20048;-82
2024/03/11 00:47:41;;;;;;;2.83;1.58;;;9.90;99.90;;;;;;5020445;28;20487;-82
2024/03/11 00:50:12;;;;;;;2.45;1.73;;;9.90;99.90;;;;;;5032306;28;20036;-82
2024/03/11 00:52:38;;;;;;;3.00;1.85;;;10.00;99.90;;;;;;5016786;28;20029;-81
2024/03/11 00:55:06;;;;;;;2.28;1.67;;;9.90;99.90;;;;;;5036549;28;20475;-82
2024/03/11 00:57:32;;;;;;;2.90;2.20;;;9.90;99.90;;;;;;5015093;28;20021;-81
2024/03/11 00:59:58;;;;;;;2.25;1.77;;;9.90;99.90;;;;;;5013138;28;20462;-82
2024/03/11 01:02:26;;;;;;;3.65;1.90;;;9.90;99.90;;;;;;5013819;28;20025;-81
2024/03/11 01:04:52;;;;;;;2.45;1.90;;;9.90;99.90;;;;;;5008317;28;20033;-82
2024/03/11 01:07:20;;;;;;;5.35;2.20;;;9.90;99.90;;;;;;5031770;28;20021;-81
2024/03/11 01:09:46;;;;;;;2.72;2.47;;;9.90;99.90;;;;;;5017958;28;20041;-81
2024/03/11 01:12:11;;;;;;;2.70;2.08;;;9.90;99.90;;;;;;5031404;28;20124;-82
2024/03/11 01:14:37;;;;;;;3.33;2.40;;;9.90;99.90;;;;;;5030365;28;20079;-81
2024/03/11 01:17:03;;;;;;;6.10;2.50;;;9.90;99.90;;;;;;5007107;28;20025;-82
2024/03/11 01:19:29;;;;;;;4.50;1.90;;;9.90;99.90;;;;;;5018147;28;20108;-82
2024/03/11 01:21:57;;;;;;;2.85;2.25;;;9.90;99.90;;;;;;5010051;28;20101;-81
2024/03/11 01:24:24;;;;;;;4.97;2.50;;;9.90;99.90;;;;;;5020235;28;20087;-82
2024/03/11 01:26:49;;;;;;;2.35;2.10;;;9.90;99.90;;;;;;5015994;28;20399;-82
2024/03/11 01:29:15;;;;;;;2.70;2.30;;;9.90;99.90;;;;;;5013230;28;20021;-81
2024/03/11 01:31:42;;;;;;;3.38;2.42;;;9.90;99.90;;;;;;5011472;28;20032;-82
2024/03/11 01:34:08;;;;;;;4.07;2.85;;;9.90;99.90;;;;;;5008251;28;20064;-82
2024/03/11 01:36:36;;;;;;;4.22;2.60;;;9.90;99.90;;;;;;5010395;28;20183;-81
2024/03/11 01:39:08;;;;;;;2.72;2.30;;;9.90;99.90;;;;;;5017453;28;20037;-81
2024/03/11 01:41:38;;;;;;;5.90;2.70;;;9.90;99.90;;;;;;5015917;28;20033;-80
2024/03/11 01:44:07;;;;;;;4.32;2.75;;;9.90;99.90;;;;;;5013093;28;20025;-82
2024/03/11 01:46:33;;;;;;;3.50;2.75;;;9.90;99.90;;;;;;5014087;28;20057;-81
2024/03/11 01:49:06;;;;;;;2.92;2.55;;;10.00;99.90;;;;;;5024813;28;20029;-82
2024/03/11 01:51:34;;;;;;;4.13;2.85;;;9.90;99.90;;;;;;5004333;28;20021;-82
2024/03/11 01:53:59;;;;;;;3.70;2.90;;;9.90;99.90;;;;;;5034338;28;20464;-81
2024/03/11 01:56:28;;;;;;;3.72;2.88;;;10.00;99.90;;;;;;5017184;28;20053;-80
2024/03/11 01:58:56;;;;;;;3.13;2.50;;;9.90;99.90;;;;;;5019433;28;20116;-81
2024/03/11 02:01:22;;;;;;;4.82;2.60;;;10.00;99.90;;;;;;5021390;28;20028;-82
2024/03/11 02:03:48;;;;;;;4.65;3.00;;;9.90;99.90;;;;;;5037089;28;20079;-82
2024/03/11 02:06:14;;;;;;;4.00;2.80;;;9.90;99.90;;;;;;5007547;28;20021;-81
2024/03/11 02:08:39;;;;;;;3.83;2.95;;;9.90;99.90;;;;;;5012950;28;20033;-82
2024/03/11 02:11:05;;;;;;;6.18;3.03;;;9.90;99.90;;;;;;5038607;28;20069;-82
2024/03/11 02:13:33;;;;;;;4.38;2.72;;;9.90;99.90;;;;;;5018594;28;20506;-82
2024/03/11 02:15:59;;;;;;;4.80;3.13;;;9.90;99.90;;;;;;5037502;28;20024;-82
2024/03/11 02:18:25;;;;;;;4.57;3.25;;;9.90;99.90;;;;;;5016853;28;20025;-82
2024/03/11 02:20:50;;;;;;;5.63;2.78;;;9.90;99.90;;;;;;5035844;28;20027;-81
2024/03/11 02:23:16;;;;;;;3.83;2.83;;;9.90;99.90;;;;;;5016314;28;20022;-81
2024/03/11 02:25:41;;;;;;;4.03;2.70;;;9.90;99.90;;;;;;5011167;28;20025;-83
2024/03/11 02:28:08;;;;;;;3.63;2.50;;;9.90;99.90;;;;;;5034286;28;20033;-82
2024/03/11 02:30:33;;;;;;;5.43;2.72;;;10.00;99.90;;;;;;5018224;28;20483;-81
2024/03/11 02:32:59;;;;;;;5.10;3.05;;;10.00;99.90;;;;;;5036901;28;20045;-81
2024/03/11 02:35:26;;;;;;;4.72;3.08;;;10.00;99.90;;;;;;5018941;28;20096;-81
2024/03/11 02:37:51;;;;;;;3.38;2.60;;;9.90;99.90;;;;;;5014896;28;20017;-81
2024/03/11 02:40:18;;;;;;;6.53;3.15;;;10.00;99.90;;;;;;5013340;28;20027;-82
2024/03/11 02:42:44;;;;;;;4.00;2.83;;;10.00;99.90;;;;;;5030346;28;20021;-82
2024/03/11 02:45:13;;;;;;;5.30;3.35;;;10.00;99.90;;;;;;5014760;28;20036;-82
2024/03/11 02:47:39;;;;;;;4.70;3.03;;;9.90;99.90;;;;;;5019311;28;20494;-82
2024/03/11 02:50:05;;;;;;;6.13;3.22;;;9.90;99.90;;;;;;5021129;28;20112;-82
2024/03/11 02:52:32;;;;;;;4.68;2.70;;;9.90;99.90;;;;;;5018840;28;20025;-82
2024/03/11 02:54:57;;;;;;;6.57;3.50;;;10.00;99.90;;;;;;5032409;28;20037;-82
2024/03/11 02:57:23;;;;;;;5.07;3.20;;;9.90;99.90;;;;;;5007332;28;20029;-81
2024/03/11 02:59:50;;;;;;;5.03;3.03;;;9.90;99.90;;;;;;5015732;28;20116;-82
2024/03/11 03:02:16;;;;;;;4.38;3.10;;;9.90;99.90;;;;;;5014426;28;20139;-81
2024/03/11 03:04:41;;;;;;;5.55;3.00;;;9.90;99.90;;;;;;5038800;28;20092;-83
2024/03/11 03:07:07;;;;;;;4.32;3.05;;;9.90;99.90;;;;;;5016865;28;20507;-82
2024/03/11 03:09:36;;;;;;;4.32;3.20;;;9.90;99.90;;;;;;5017985;28;20095;-81
2024/03/11 03:12:02;;;;;;;5.65;2.85;;;9.90;99.90;;;;;;5012734;28;20497;-81
2024/03/11 03:14:29;;;;;;;7.97;3.30;;;9.90;99.90;;;;;;5030367;28;20111;-82
2024/03/11 03:16:54;;;;;;;5.03;3.25;;;9.90;99.90;;;;;;5013443;28;20626;-81
2024/03/11 03:19:20;;;;;;;7.32;3.85;;;9.90;99.90;;;;;;5017240;28;20021;-81
2024/03/11 03:21:46;;;;;;;4.68;3.58;;;9.90;99.90;;;;;;5022965;28;20012;-82
2024/03/11 03:24:11;;;;;;;7.10;3.33;;;9.90;99.90;;;;;;5013030;28;20402;-82
2024/03/11 03:26:37;;;;;;;7.07;3.80;;;9.90;99.90;;;;;;5034446;28;20029;-81
2024/03/11 03:29:02;;;;;;;5.03;3.90;;;9.90;99.90;;;;;;5034441;28;20021;-81
2024/03/11 03:31:28;;;;;;;6.53;3.45;;;9.90;99.90;;;;;;5011879;28;20075;-82
2024/03/11 03:33:54;;;;;;;4.63;3.28;;;9.90;99.90;;;;;;5031187;28;20026;-82
2024/03/11 03:36:19;;;;;;;5.88;3.80;;;9.90;99.90;;;;;;5017575;28;20419;-82
2024/03/11 03:38:45;;;;;;;6.25;4.20;;;9.90;99.90;;;;;;5031489;28;20021;-81
2024/03/11 03:41:11;;;;;;;6.10;3.95;;;9.90;99.90;;;;;;5016933;28;20104;-82
2024/03/11 03:43:36;;;;;;;9.30;4.22;;;9.90;99.90;;;;;;5016397;28;20017;-82
2024/03/11 03:46:05;;;;;;;5.75;4.10;;;9.90;99.90;;;;;;5032021;28;20104;-81
2024/03/11 03:48:31;;;;;;;6.95;4.35;;;9.90;99.90;;;;;;5029519;28;20078;-83
2024/03/11 03:50:56;;;;;;;6.43;4.22;;;9.90;99.90;;;;;;5040120;28;20025;-82
2024/03/11 03:53:23;;;;;;;7.75;4.75;;;9.90;99.90;;;;;;5031147;28;20072;-81
2024/03/11 03:55:49;;;;;;;8.25;4.75;;;9.80;99.90;;;;;;5015363;28;20021;-82
2024/03/11 03:58:15;;;;;;;10.48;5.70;;;9.90;99.90;;;;;;5036935;28;20049;-81
2024/03/11 04:00:41;;;;;;;9.80;6.05;;;9.90;99.90;;;;;;5017375;28;20061;-81
2024/03/11 04:03:06;;;;;;;9.60;5.07;;;9.80;99.90;;;;;;5012783;28;20022;-82
2024/03/11 04:05:32;;;;;;;8.25;5.80;;;9.90;99.90;;;;;;5009438;28;20029;-82
2024/03/11 04:07:58;;;;;;;7.97;5.53;;;9.90;99.90;;;;;;5012791;28;20033;-82
2024/03/11 04:10:24;;;;;;;9.20;5.65;;;9.80;99.90;;;;;;5012517;28;20499;-81
2024/03/11 04:12:51;;;;;;;9.23;5.65;;;9.80;99.90;;;;;;5034354;28;20044;-81
2024/03/11 04:15:21;;;;;;;8.43;5.60;;;9.80;99.90;;;;;;5018134;28;20050;-81
2024/03/11 04:17:47;;;;;;;8.93;5.70;;;9.80;99.90;;;;;;5005313;28;20021;-81
2024/03/11 04:20:14;;;;;;;10.20;6.13;;;9.80;99.90;;;;;;5031737;28;20256;-83
2024/03/11 04:22:50;;;;;;;8.23;5.18;;;9.80;99.90;;;;;;5032321;28;20502;-81
2024/03/11 04:25:22;;;;;;;10.23;5.90;;;9.90;99.90;;;;;;5033520;28;20097;-81
2024/03/11 04:27:50;;;;;;;9.65;5.05;;;9.80;99.90;;;;;;5007756;28;20109;-82
2024/03/11 04:30:19;;;;;;;7.85;5.50;;;9.80;99.90;;;;;;5035700;28;20028;-81
2024/03/11 04:32:54;;;;;;;14.90;5.30;;;9.90;99.90;;;;;;5033285;28;20050;-80
2024/03/11 04:35:34;;;;;;;7.80;5.15;;;9.90;99.90;;;;;;5035570;28;20503;-84
2024/03/11 04:38:00;;;;;;;8.98;5.78;;;9.90;99.90;;;;;;5011998;28;20407;-81
2024/03/11 04:40:27;;;;;;;7.10;4.68;;;9.90;99.90;;;;;;5010899;28;20022;-82
2024/03/11 04:42:57;;;;;;;8.10;5.07;;;9.90;99.90;;;;;;5017751;28;20097;-83
2024/03/11 04:45:26;;;;;;;7.43;5.10;;;9.90;99.90;;;;;;5017851;28;20022;-82
2024/03/11 04:47:53;;;;;;;9.07;4.70;;;9.90;99.90;;;;;;5010591;28;20029;-81
2024/03/11 04:50:25;;;;;;;9.10;4.35;;;9.90;99.90;;;;;;5033330;28;20498;-82
2024/03/11 04:52:52;;;;;;;5.47;4.07;;;9.90;99.90;;;;;;5031514;28;20029;-82
2024/03/11 04:55:18;;;;;;;6.65;4.60;;;9.90;99.90;;;;;;5013413;28;20026;-81
2024/03/11 04:57:45;;;;;;;7.93;4.38;;;9.80;99.90;;;;;;5033289;28;20022;-83
2024/03/11 05:00:12;;;;;;;7.68;3.85;;;9.80;99.90;;;;;;5013171;28;20025;-83
2024/03/11 05:02:39;;;;;;;6.03;4.07;;;9.90;99.90;;;;;;5036460;28;20094;-82
2024/03/11 05:05:09;;;;;;;7.18;4.30;;;9.90;99.90;;;;;;5031117;28;20021;-81
2024/03/11 05:07:36;;;;;;;6.60;4.30;;;9.90;99.90;;;;;;5026937;28;20036;-82
2024/03/11 05:10:02;;;;;;;6.88;3.80;;;9.90;99.90;;;;;;5030765;28;20021;-81
2024/03/11 05:12:28;;;;;;;4.63;3.60;;;9.80;99.90;;;;;;5029957;28;20037;-82
2024/03/11 05:14:54;;;;;;;6.18;4.00;;;9.80;99.90;;;;;;5035969;28;20013;-82
2024/03/11 05:17:19;;;;;;;5.38;3.55;;;9.80;99.90;;;;;;5019584;28;20108;-82
2024/03/11 05:19:46;;;;;;;7.40;4.35;;;9.80;99.90;;;;;;5015521;28;20108;-82
2024/03/11 05:22:12;;;;;;;6.88;4.40;;;9.80;99.90;;;;;;5014451;28;20018;-81
2024/03/11 05:24:38;;;;;;;4.22;3.28;;;9.80;99.90;;;;;;5031860;28;20029;-81
2024/03/11 05:27:06;;;;;;;5.75;3.92;;;9.80;99.90;;;;;;5010794;28;20032;-81
2024/03/11 05:29:32;;;;;;;6.35;4.07;;;9.80;99.90;;;;;;5016569;28;20029;-81
2024/03/11 05:31:58;;;;;;;4.57;3.55;;;9.80;99.90;;;;;;5036916;28;20032;-82
2024/03/11 05:34:24;;;;;;;5.70;3.95;;;9.80;99.90;;;;;;5010421;28;20515;-81
2024/03/11 05:36:49;;;;;;;7.07;4.60;;;9.80;99.90;;;;;;5030269;28;20079;-82
2024/03/11 05:39:15;;;;;;;4.30;3.47;;;9.80;99.90;;;;;;5011701;28;20024;-81
2024/03/11 05:41:43;;;;;;;4.70;3.70;;;9.80;99.90;;;;;;5032919;28;20064;-82
2024/03/11 05:44:09;;;;;;;4.97;3.92;;;9.80;99.90;;;;;;5010678;28;20024;-82
2024/03/11 05:46:35;;;;;;;5.97;4.10;;;9.80;99.90;;;;;;5007158;28;20025;-81
2024/03/11 05:49:00;;;;;;;5.57;4.00;;;9.80;99.90;;;;;;5025289;28;20029;-81
2024/03/11 05:51:31;;;;;;;6.60;4.15;;;9.80;99.90;;;;;;5012362;28;20028;-81
2024/03/11 05:53:58;;;;;;;;;;;9.80;99.90;;;;;;5017743;28;20025;-82
2024/03/11 05:56:24;;;;;;;5.00;3.75;;;9.80;99.90;;;;;;5032629;28;19952;-80
2024/03/11 05:58:50;;;;;;;6.13;4.10;;;9.80;99.90;;;;;;5012200;28;20019;-82
2024/03/11 06:01:16;;;;;;;6.90;4.28;;;9.80;99.90;;;;;;5011848;28;20014;-83
2024/03/11 06:03:42;;;;;;;6.07;3.63;;;9.80;99.90;;;;;;5006889;28;20513;-82
2024/03/11 06:06:08;;;;;;;4.75;3.60;;;9.80;99.90;;;;;;5009516;28;20034;-82
2024/03/11 06:08:34;;;;;;;6.68;4.07;;;9.80;99.90;;;;;;5009410;28;20103;-82
2024/03/11 06:11:00;;;;;;;7.28;4.38;;;9.80;99.90;;;;;;5036379;28;20032;-81
2024/03/11 06:13:25;;;;;;;9.48;4.68;;;9.80;99.90;;;;;;5031542;28;20022;-82
2024/03/11 06:15:53;;;;;;;5.15;3.60;;;9.80;99.90;;;;;;5029499;28;20021;-82
2024/03/11 06:18:18;;;;;;;9.35;4.63;;;9.80;99.90;;;;;;5007950;28;20468;-81
2024/03/11 06:20:44;;;;;;;6.55;4.10;;;9.80;99.90;;;;;;5030271;28;20033;-82
2024/03/11 06:23:09;;;;;;;9.18;4.15;;;9.80;99.90;;;;;;5013075;28;20022;-82
2024/03/11 06:25:35;;;;;;;9.05;4.43;;;9.80;99.90;;;;;;5034668;28;20022;-82
2024/03/11 06:28:01;;;;;;;6.95;4.68;;;9.80;99.90;;;;;;5032523;28;20083;-81
2024/03/11 06:30:27;;;;;;;6.40;4.07;;;9.80;99.90;;;;;;5014155;28;20479;-82
2024/03/11 06:32:53;;;;;;;6.13;4.28;;;9.80;99.90;;;;;;5026171;28;20048;-82
2024/03/11 06:35:19;;;;;;;6.13;4.40;;;9.80;99.90;;;;;;5007676;28;20479;-82
2024/03/11 06:37:46;;;;;;;6.65;3.97;;;9.80;99.90;;;;;;5006021;28;20607;-82
2024/03/11 06:40:21;;;;;;;6.47;3.75;;;9.80;99.90;;;;;;5016166;28;20018;-82
2024/03/11 06:42:52;;;;;;;8.40;4.38;;;9.90;99.90;;;;;;5040061;28;20025;-82
2024/03/11 06:45:18;;;;;;;;;;;9.90;99.90;;;;;;5012094;28;20025;-81
2024/03/11 06:47:44;;;;;;;5.97;4.32;;;9.80;99.90;;;;;;5013793;28;19911;-83
2024/03/11 06:50:13;;;;;;;7.55;4.43;;;9.80;99.90;;;;;;5010517;28;20711;-82
2024/03/11 06:52:38;;;;;;;7.78;5.43;;;9.80;99.90;;;;;;5035170;28;20091;-81
2024/03/11 06:55:10;;;;;;;10.35;5.80;;;9.80;99.90;;;;;;5032223;28;20479;-82
2024/03/11 06:57:36;;;;;;;12.32;6.80;;;9.80;99.90;;;;;;5042160;28;20144;-80
2024/03/11 07:00:02;;;;;;;17.02;8.63;;;9.80;99.90;;;;;;5014743;28;20025;-80
2024/03/11 07:02:28;;;;;;;21.10;10.50;;;9.80;99.90;;;;;;5010070;28;20075;-81
2024/03/11 07:04:56;;;;;;;18.52;9.68;;;9.70;99.90;;;;;;5016411;28;20530;-81
2024/03/11 07:07:24;;;;;;;19.75;10.25;;;9.70;99.90;;;;;;5029661;28;20011;-82
2024/03/11 07:09:50;;;;;;;17.77;9.73;;;9.80;99.90;;;;;;5011690;28;20108;-82
2024/03/11 07:12:19;;;;;;;19.10;10.60;;;9.80;99.90;;;;;;5022186;28;20527;-85
2024/03/11 07:14:45;;;;;;;19.48;10.95;;;9.80;99.90;;;;;;5012691;28;20403;-83
2024/03/11 07:17:12;;;;;;;19.30;10.35;;;9.80;99.90;;;;;;5030693;28;20515;-83
2024/03/11 07:19:38;;;;;;;17.45;9.30;;;9.80;99.90;;;;;;5016387;28;20441;-83
2024/03/11 07:22:06;;;;;;;22.45;11.40;;;9.80;99.90;;;;;;5012365;28;20021;-83
2024/03/11 07:24:31;;;;;;;18.42;10.35;;;9.80;99.90;;;;;;5030228;28;20032;-83
2024/03/11 07:26:57;;;;;;;19.67;10.02;;;9.80;99.90;;;;;;5035567;28;20029;-82
2024/03/11 07:29:23;;;;;;;17.67;9.70;;;9.80;99.90;;;;;;5014292;28;20021;-83
2024/03/11 07:31:48;;;;;;;21.85;10.05;;;9.80;99.90;;;;;;5029381;28;20018;-83
2024/03/11 07:34:14;;;;;;;18.83;9.75;;;9.90;99.90;;;;;;5013151;28;20017;-83
2024/03/11 07:36:39;;;;;;;17.52;9.70;;;9.80;99.90;;;;;;5015678;28;20091;-82
2024/03/11 07:39:05;;;;;;;15.57;9.50;;;9.90;99.90;;;;;;5033654;28;20056;-83
2024/03/11 07:41:31;;;;;;;16.15;9.15;;;9.90;99.90;;;;;;5013189;28;20030;-83
2024/03/11 07:43:56;;;;;;;14.65;8.80;;;9.90;99.90;;;;;;5012010;28;20142;-83
2024/03/11 07:46:22;;;;;;;15.52;8.60;;;9.90;99.90;;;;;;5013923;28;20097;-82
2024/03/11 07:48:48;;;;;;;16.00;9.25;;;9.90;99.90;;;;;;5012957;28;20458;-83
2024/03/11 07:51:14;;;;;;;15.95;8.05;;;9.90;99.90;;;;;;5015195;28;20021;-82
2024/03/11 07:53:39;;;;;;;17.80;8.88;;;10.00;99.90;;;;;;5012220;28;20502;-83
2024/03/11 07:56:05;;;;;;;14.23;8.10;;;10.00;99.90;;;;;;5035474;28;20493;-83
2024/03/11 07:58:34;;;;;;;13.38;8.02;;;10.00;99.90;;;;;;5012687;28;20028;-82
2024/03/11 08:01:00;;;;;;;18.65;8.80;;;10.00;99.90;;;;;;5031171;28;20505;-83
2024/03/11 08:03:27;;;;;;;14.60;8.07;;;10.00;99.90;;;;;;5011502;28;20388;-82
2024/03/11 08:05:52;;;;;;;13.55;8.77;;;10.00;99.90;;;;;;5033931;28;20044;-83
2024/03/11 08:08:18;;;;;;;15.55;9.15;;;10.00;99.90;;;;;;5019317;28;20430;-83
2024/03/11 08:10:50;;;;;;;15.27;8.38;;;10.10;99.90;;;;;;5017658;28;20028;-82
2024/03/11 08:13:16;;;;;;;13.73;8.18;;;10.10;99.90;;;;;;5014125;28;20066;-81
2024/03/11 08:15:42;;;;;;;16.77;9.05;;;10.10;99.90;;;;;;5031394;28;20017;-83
2024/03/11 08:18:09;;;;;;;17.70;9.48;;;10.20;99.90;;;;;;5012078;28;20029;-83
2024/03/11 08:20:34;;;;;;;16.77;9.73;;;10.20;99.90;;;;;;5016096;28;20022;-82
2024/03/11 08:23:00;;;;;;;19.45;9.73;;;10.30;99.90;;;;;;5036074;28;20026;-83
2024/03/11 08:25:31;;;;;;;19.20;9.88;;;10.40;99.90;;;;;;5010918;28;20707;-83
2024/03/11 08:27:57;;;;;;;16.88;10.23;;;10.50;99.90;;;;;;5009666;28;20083;-82
2024/03/11 08:30:24;;;;;;;19.15;10.55;;;10.60;99.90;;;;;;5013272;28;20116;-82
2024/03/11 08:32:50;;;;;;;17.50;10.45;;;10.80;99.90;;;;;;5004267;28;20030;-82
2024/03/11 08:35:17;;;;;;;17.63;9.52;;;11.00;99.90;;;;;;5010998;28;20029;-82
2024/03/11 08:37:43;;;;;;;15.23;8.95;;;11.00;99.90;;;;;;5017111;28;20379;-83
2024/03/11 08:40:10;;;;;;;18.55;9.88;;;11.10;99.90;;;;;;5020467;28;20028;-82
2024/03/11 08:42:36;;;;;;;15.32;9.00;;;11.30;99.90;;;;;;5010438;28;20106;-82
2024/03/11 08:45:02;;;;;;;15.15;8.73;;;11.40;99.90;;;;;;5031292;28;20061;-83
2024/03/11 08:47:28;;;;;;;17.55;10.00;;;11.50;99.90;;;;;;5007417;28;20021;-83
2024/03/11 08:49:54;;;;;;;18.42;9.85;;;11.50;99.90;;;;;;5011631;28;20022;-82
2024/03/11 08:52:20;;;;;;;15.70;9.10;;;11.60;99.90;;;;;;5016201;28;20024;-82
2024/03/11 08:54:45;;;;;;;16.17;8.52;;;11.50;99.90;;;;;;5020072;28;20033;-81
2024/03/11 08:57:15;;;;;;;17.02;8.98;;;11.60;99.90;;;;;;5012805;28;20411;-82
2024/03/11 08:59:41;;;;;;;13.88;9.00;;;11.70;99.90;;;;;;5029740;28;20025;-83
2024/03/11 09:02:09;;;;;;;13.95;8.85;;;11.70;99.90;;;;;;5012435;28;20033;-82
2024/03/11 09:04:38;;;;;;;14.82;8.82;;;11.80;99.90;;;;;;5028086;28;20049;-82
2024/03/11 09:07:04;;;;;;;13.27;8.75;;;11.70;99.90;;;;;;5024553;28;20095;-83
2024/03/11 09:09:30;;;;;;;16.27;8.55;;;11.60;99.90;;;;;;5009171;28;20027;-82
2024/03/11 09:12:00;;;;;;;13.43;9.15;;;11.80;99.90;;;;;;5008332;28;20036;-83
2024/03/11 09:14:33;;;;;;;14.57;9.05;;;12.00;99.90;;;;;;5012753;28;20372;-82
2024/03/11 09:17:03;;;;;;;13.25;8.10;;;12.30;99.90;;;;;;5031854;28;20486;-82
2024/03/11 09:19:30;;;;;;;11.90;7.85;;;12.30;99.90;;;;;;5030203;28;20088;-83
2024/03/11 09:21:56;;;;;;;13.88;8.23;;;12.30;99.90;;;;;;5012974;28;20079;-83
2024/03/11 09:24:22;;;;;;;11.25;7.18;;;12.40;99.90;;;;;;5021180;28;20554;-82
2024/03/11 09:26:51;;;;;;;10.60;7.07;;;12.50;99.90;;;;;;5031485;28;20120;-82
2024/03/11 09:29:21;;;;;;;10.35;7.47;;;12.60;99.90;;;;;;5029873;28;20052;-82
2024/03/11 09:31:47;;;;;;;10.05;6.45;;;12.80;99.90;;;;;;5006707;28;20022;-82
2024/03/11 09:34:15;;;;;;;10.23;6.40;;;12.90;99.90;;;;;;5031853;28;20086;-84
2024/03/11 09:36:41;;;;;;;9.18;5.65;;;13.00;99.90;;;;;;5006921;28;20550;-83
2024/03/11 09:39:11;;;;;;;6.20;4.10;;;13.10;99.90;;;;;;5013150;28;20018;-83
2024/03/11 09:41:44;;;;;;;5.85;4.40;;;12.90;99.90;;;;;;5028908;28;20013;-82
2024/03/11 09:44:18;;;;;;;5.20;4.07;;;13.10;99.90;;;;;;5030672;28;20487;-81
2024/03/11 09:46:55;;;;;;;5.05;3.65;;;13.30;99.90;;;;;;5031533;28;20013;-83
2024/03/11 09:49:23;;;;;;;6.18;4.00;;;13.40;99.90;;;;;;5014686;28;20083;-82
2024/03/11 09:51:50;;;;;;;4.88;3.92;;;13.60;99.90;;;;;;5011308;28;20025;-82
2024/03/11 09:54:19;;;;;;;4.63;3.92;;;13.70;99.90;;;;;;5029415;28;20033;-83
2024/03/11 09:56:47;;;;;;;5.83;4.03;;;13.80;99.90;;;;;;5029577;28;20463;-83
2024/03/11 09:59:24;;;;;;;5.32;3.40;;;13.90;99.90;;;;;;5011414;28;20029;-84
2024/03/11 10:01:54;;;;;;;4.18;3.35;;;14.00;99.90;;;;;;5029948;28;20056;-82
2024/03/11 10:04:23;;;;;;;4.00;3.17;;;14.00;99.90;;;;;;5011191;28;20021;-83
2024/03/11 10:07:04;;;;;;;5.43;3.63;;;14.10;99.90;;;;;;5001787;28;20026;-82
2024/03/11 10:09:44;;;;;;;7.57;3.67;;;14.20;99.90;;;;;;5026139;28;20018;-81
2024/03/11 10:12:11;;;;;;;5.43;3.47;;;14.30;99.90;;;;;;5007864;28;20084;-81
2024/03/11 10:14:39;;;;;;;4.63;3.20;;;14.40;99.90;;;;;;5029955;28;20032;-82
2024/03/11 10:17:19;;;;;;;3.95;3.28;;;14.50;99.90;;;;;;5016611;28;20542;-82
2024/03/11 10:19:56;;;;;;;6.00;3.50;;;14.60;99.90;;;;;;5027068;28;20022;-82
2024/03/11 10:22:26;;;;;;;5.32;3.45;;;14.70;99.90;;;;;;5028728;28;20021;-82
2024/03/11 10:24:52;;;;;;;4.40;2.88;;;14.80;99.90;;;;;;5031082;28;20032;-81
2024/03/11 10:27:23;;;;;;;3.15;2.35;;;14.80;99.90;;;;;;5010263;28;20095;-82
2024/03/11 10:29:49;;;;;;;2.90;2.42;;;14.90;99.90;;;;;;5029230;28;20125;-82
2024/03/11 10:32:41;;;;;;;3.78;2.45;;;15.00;99.90;;;;;;5013896;28;20025;-82
2024/03/11 10:35:10;;;;;;;3.83;2.10;;;15.10;99.90;;;;;;5038179;28;20025;-83
2024/03/11 10:37:42;;;;;;;2.53;1.90;;;15.10;99.90;;;;;;5017379;28;20024;-81
2024/03/11 10:40:17;;;;;;;2.65;1.80;;;15.10;99.90;;;;;;5030777;28;20095;-82
2024/03/11 10:42:54;;;;;;;2.10;1.90;;;15.20;99.90;;;;;;5027484;28;20025;-81
2024/03/11 10:45:35;;;;;;;2.50;1.98;;;15.20;99.90;;;;;;5010094;28;20021;-81
2024/03/11 10:48:01;;;;;;;2.63;1.67;;;15.40;99.90;;;;;;5026785;28;20022;-81
2024/03/11 10:50:33;;;;;;;3.78;1.55;;;15.40;99.90;;;;;;5022327;28;20021;-81
2024/03/11 10:53:03;;;;;;;1.80;1.58;;;15.20;99.90;;;;;;5008865;28;20096;-81
2024/03/11 10:55:32;;;;;;;7.78;1.80;;;14.10;99.90;;;;;;5031124;28;20037;-81
2024/03/11 10:58:01;;;;;;;2.20;1.80;;;13.30;99.90;;;;;;5028372;28;20022;-81
2024/03/11 11:00:39;;;;;;;3.13;1.33;;;12.90;99.90;;;;;;5011662;28;20029;-81
2024/03/11 11:03:12;;;;;;;2.90;1.75;;;12.80;99.90;;;;;;5011732;28;20029;-80
2024/03/11 11:05:53;;;;;;;1.73;1.48;;;12.60;99.90;;;;;;5021979;28;20429;-80
2024/03/11 11:08:22;;;;;;;3.65;1.63;;;12.60;99.90;;;;;;5020440;28;20013;-81
2024/03/11 11:10:49;;;;;;;2.70;1.60;;;12.50;99.90;;;;;;5015263;28;20056;-81
2024/03/11 11:13:15;;;;;;;1.65;1.20;;;12.40;99.90;;;;;;5034527;28;20860;-83
2024/03/11 11:15:45;;;;;;;1.55;1.20;;;12.60;99.90;;;;;;5034506;28;20104;-83
2024/03/11 11:18:13;;;;;;;1.20;1.10;;;13.10;99.90;;;;;;5011947;28;20206;-81
2024/03/11 11:20:43;;;;;;;1.65;1.27;;;13.50;99.90;;;;;;5038115;28;20025;-80
2024/03/11 11:23:11;;;;;;;4.55;1.13;;;13.30;99.90;;;;;;5035570;28;20017;-82
2024/03/11 11:25:39;;;;;;;1.20;1.10;;;12.80;99.90;;;;;;5013079;28;20570;-82
2024/03/11 11:28:15;;;;;;;0.73;0.73;;;12.60;99.90;;;;;;5014385;28;20062;-81
2024/03/11 11:30:44;;;;;;;1.83;1.00;;;12.70;99.90;;;;;;5018517;28;20155;-81
2024/03/11 11:33:11;;;;;;;1.50;1.15;;;12.70;99.90;;;;;;5013910;28;20024;-81
2024/03/11 11:35:40;;;;;;;2.45;1.40;;;12.70;99.60;;;;;;5013132;28;20022;-81
2024/03/11 11:38:33;;;;;;;1.30;1.20;;;12.80;99.90;;;;;;5021374;28;20022;-82
2024/03/11 11:40:59;;;;;;;2.47;1.30;;;12.80;97.30;;;;;;5023546;28;20032;-81
2024/03/11 11:43:54;;;;;;;1.25;1.10;;;12.70;96.90;;;;;;5016245;28;20590;-81
2024/03/11 11:46:46;;;;;;;1.83;0.88;;;12.60;96.70;;;;;;5032598;28;20030;-80
2024/03/11 11:49:23;;;;;;;5.75;1.13;;;12.50;94.10;;;;;;5032846;28;20071;-82
2024/03/11 11:51:51;;;;;;;1.00;0.80;;;12.60;94.00;;;;;;5003775;28;20021;-82
2024/03/11 11:54:26;;;;;;;1.65;1.17;;;12.50;93.80;;;;;;5037137;28;20017;-82
2024/03/11 11:57:12;;;;;;;13.25;1.88;;;12.70;94.60;;;;;;5014524;28;20024;-82
2024/03/11 11:59:38;;;;;;;2.83;1.00;;;12.80;94.80;;;;;;5011505;28;20483;-82
2024/03/11 12:02:08;;;;;;;2.22;0.90;;;12.60;92.90;;;;;;5036147;28;20025;-81
2024/03/11 12:04:34;;;;;;;1.70;1.40;;;12.70;91.60;;;;;;5015671;28;20036;-80
2024/03/11 12:07:00;;;;;;;3.05;1.00;;;12.80;93.10;;;;;;5013338;28;20037;-82
2024/03/11 12:09:26;;;;;;;2.45;1.90;;;12.90;92.20;;;;;;5035790;28;20048;-82
2024/03/11 12:11:55;;;;;;;4.03;1.35;;;12.80;91.10;;;;;;5030964;28;20013;-81
2024/03/11 12:14:22;;;;;;;3.40;1.00;;;12.70;89.90;;;;;;5017685;28;20025;-80
2024/03/11 12:16:48;;;;;;;0.70;0.70;;;12.90;91.10;;;;;;5019479;28;20043;-81
2024/03/11 12:19:13;;;;;;;2.08;1.10;;;12.80;86.60;;;;;;5015507;28;20395;-82
2024/03/11 12:21:41;;;;;;;2.15;1.10;;;12.70;88.80;;;;;;5010375;28;20022;-81
2024/03/11 12:24:11;;;;;;;0.70;0.70;;;12.70;90.30;;;;;;5011052;28;20032;-81
2024/03/11 12:26:38;;;;;;;1.08;0.90;;;12.80;90.60;;;;;;5010167;28;20025;-81
2024/03/11 12:29:07;;;;;;;1.33;0.90;;;12.90;90.80;;;;;;5016631;28;20037;-81
2024/03/11 12:31:34;;;;;;;5.70;0.95;;;12.80;86.60;;;;;;5018795;28;20028;-81
2024/03/11 12:34:08;;;;;;;1.90;0.70;;;12.80;87.40;;;;;;5034496;28;20080;-81
2024/03/11 12:36:37;;;;;;;1.05;0.52;;;12.80;84.40;;;;;;5017297;28;20029;-81
2024/03/11 12:39:16;;;;;;;;;;;12.80;82.80;;;;;;5013184;28;20032;-82
2024/03/11 12:41:42;;;;;;;0.85;0.70;;;12.70;82.20;;;;;;5037801;28;20285;-81
2024/03/11 12:44:18;;;;;;;0.82;0.70;;;12.60;79.90;;;;;;5013341;28;20025;-81
2024/03/11 12:46:45;;;;;;;0.60;0.60;;;12.60;84.70;;;;;;5036287;28;20032;-82
2024/03/11 12:49:12;;;;;;;1.98;0.70;;;12.60;86.10;;;;;;5017460;28;20036;-81
2024/03/11 12:51:42;;;;;;;0.70;0.70;;;12.60;88.60;;;;;;5037743;28;20078;-81
2024/03/11 12:54:22;;;;;;;1.05;0.80;;;12.50;87.90;;;;;;5011954;28;20044;-82